PGT6TF LTFJ-LTFD
Flight info
| Callsign | PGT6TF |
|---|---|
| Flight time | 0h 32m |
| Altitude | 28000 |
| Route | IVGUS Y227 RAUMA G80 KONEN |
| Aircraft | A21N/M-SDE2E3FGHIRWXY/LB1 |
Departure
| Time | 2026-04-23 19:39 |
|---|---|
| Airport | Istanbul Sabiha Gökçen International Airport (LTFJ) |
Arrival
| Time | 2026-04-23 20:12 |
|---|---|
| Airport | Balıkesir Koca Seyit Airport (LTFD) |
| Time | Latitude | Longitude | Altitude | Speed | Heading |
|---|---|---|---|---|---|
| 2026-04-23 19:21 | 40.90636 | 29.31736 | 321 ft | 0 kts | 333° |
| 2026-04-23 19:31 | 40.90635 | 29.31737 | 321 ft | 1 kts | 333° |
| 2026-04-23 19:32 | 40.90622 | 29.31746 | 321 ft | 2 kts | 333° |
| 2026-04-23 19:32 | 40.90608 | 29.31754 | 321 ft | 2 kts | 346° |
| 2026-04-23 19:32 | 40.90593 | 29.31756 | 321 ft | 2 kts | 4° |
| 2026-04-23 19:32 | 40.90578 | 29.31752 | 321 ft | 2 kts | 22° |
| 2026-04-23 19:33 | 40.90565 | 29.31742 | 321 ft | 2 kts | 40° |
| 2026-04-23 19:33 | 40.90555 | 29.31728 | 321 ft | 1 kts | 57° |
| 2026-04-23 19:33 | 40.90550 | 29.31717 | 321 ft | 0 kts | 63° |
| 2026-04-23 19:36 | 40.90551 | 29.31718 | 321 ft | 0 kts | 63° |
| 2026-04-23 19:36 | 40.90555 | 29.31729 | 321 ft | 5 kts | 63° |
| 2026-04-23 19:36 | 40.90558 | 29.31738 | 321 ft | 4 kts | 63° |
| 2026-04-23 19:36 | 40.90599 | 29.31851 | 321 ft | 21 kts | 70° |
| 2026-04-23 19:37 | 40.90515 | 29.31981 | 321 ft | 20 kts | 155° |
| 2026-04-23 19:37 | 40.90505 | 29.32101 | 321 ft | 14 kts | 70° |
| 2026-04-23 19:37 | 40.90545 | 29.32228 | 321 ft | 15 kts | 62° |
| 2026-04-23 19:37 | 40.90585 | 29.32354 | 321 ft | 15 kts | 82° |
| 2026-04-23 19:38 | 40.90528 | 29.32453 | 321 ft | 10 kts | 153° |
| 2026-04-23 19:38 | 40.90456 | 29.32478 | 321 ft | 11 kts | 191° |
| 2026-04-23 19:38 | 40.90402 | 29.32409 | 321 ft | 5 kts | 244° |
| 2026-04-23 19:38 | 40.90400 | 29.32404 | 321 ft | 1 kts | 244° |
| 2026-04-23 19:39 | 40.90389 | 29.32372 | 321 ft | 9 kts | 245° |
| 2026-04-23 19:39 | 40.90257 | 29.32014 | 321 ft | 87 kts | 244° |
| 2026-04-23 19:39 | 40.89872 | 29.30972 | 353 ft | 156 kts | 244° |
| 2026-04-23 19:39 | 40.89386 | 29.29678 | 1048 ft | 163 kts | 244° |
| 2026-04-23 19:40 | 40.88887 | 29.28276 | 1762 ft | 177 kts | 245° |
| 2026-04-23 19:40 | 40.88369 | 29.26818 | 2601 ft | 182 kts | 245° |
| 2026-04-23 19:40 | 40.87794 | 29.25214 | 2939 ft | 210 kts | 245° |
| 2026-04-23 19:40 | 40.87129 | 29.23365 | 3376 ft | 227 kts | 246° |
| 2026-04-23 19:41 | 40.86451 | 29.21486 | 3836 ft | 228 kts | 246° |
| 2026-04-23 19:41 | 40.85773 | 29.19605 | 3979 ft | 229 kts | 246° |
| 2026-04-23 19:41 | 40.85058 | 29.17613 | 3889 ft | 249 kts | 246° |
| 2026-04-23 19:41 | 40.84299 | 29.15504 | 3934 ft | 253 kts | 246° |
| 2026-04-23 19:42 | 40.83540 | 29.13412 | 3993 ft | 259 kts | 246° |
| 2026-04-23 19:42 | 40.82727 | 29.11178 | 4432 ft | 276 kts | 246° |
| 2026-04-23 19:42 | 40.81896 | 29.08908 | 5468 ft | 276 kts | 246° |
| 2026-04-23 19:42 | 40.81073 | 29.06664 | 6257 ft | 278 kts | 247° |
| 2026-04-23 19:43 | 40.80226 | 29.04349 | 6776 ft | 280 kts | 247° |
| 2026-04-23 19:43 | 40.79378 | 29.02027 | 7008 ft | 280 kts | 247° |
| 2026-04-23 19:43 | 40.78532 | 28.99711 | 7012 ft | 280 kts | 247° |
| 2026-04-23 19:43 | 40.77694 | 28.97415 | 7015 ft | 280 kts | 247° |
| 2026-04-23 19:44 | 40.76856 | 28.95099 | 7015 ft | 279 kts | 250° |
| 2026-04-23 19:44 | 40.76345 | 28.92630 | 7017 ft | 276 kts | 266° |
| 2026-04-23 19:44 | 40.76314 | 28.90109 | 7354 ft | 282 kts | 275° |
| 2026-04-23 19:44 | 40.76405 | 28.87556 | 8399 ft | 281 kts | 276° |
| 2026-04-23 19:45 | 40.76504 | 28.85012 | 9458 ft | 280 kts | 275° |
| 2026-04-23 19:45 | 40.76598 | 28.82435 | 10384 ft | 283 kts | 275° |
| 2026-04-23 19:45 | 40.76688 | 28.79800 | 11008 ft | 297 kts | 274° |
| 2026-04-23 19:45 | 40.76776 | 28.77002 | 11475 ft | 315 kts | 274° |
| 2026-04-23 19:46 | 40.76866 | 28.74017 | 11919 ft | 333 kts | 274° |
| 2026-04-23 19:46 | 40.76959 | 28.70898 | 12406 ft | 348 kts | 274° |
| 2026-04-23 19:46 | 40.77053 | 28.67699 | 13170 ft | 354 kts | 273° |
| 2026-04-23 19:46 | 40.77275 | 28.64482 | 14001 ft | 356 kts | 281° |
| 2026-04-23 19:47 | 40.77697 | 28.62367 | 14529 ft | 358 kts | 289° |
| 2026-04-23 19:47 | 40.79151 | 28.58445 | 15476 ft | 363 kts | 302° |
| 2026-04-23 19:47 | 40.80490 | 28.55624 | 16178 ft | 368 kts | 304° |
| 2026-04-23 19:47 | 40.81882 | 28.52743 | 16850 ft | 373 kts | 303° |
| 2026-04-23 19:48 | 40.82972 | 28.49614 | 17458 ft | 382 kts | 289° |
| 2026-04-23 19:48 | 40.83411 | 28.46149 | 18092 ft | 390 kts | 275° |
| 2026-04-23 19:48 | 40.83257 | 28.42573 | 18714 ft | 396 kts | 267° |
| 2026-04-23 19:48 | 40.82954 | 28.38929 | 19313 ft | 402 kts | 266° |
| 2026-04-23 19:49 | 40.82630 | 28.35233 | 19864 ft | 408 kts | 266° |
| 2026-04-23 19:49 | 40.82309 | 28.31504 | 20425 ft | 413 kts | 266° |
| 2026-04-23 19:49 | 40.81990 | 28.27725 | 21016 ft | 416 kts | 266° |
| 2026-04-23 19:49 | 40.81673 | 28.23921 | 21536 ft | 422 kts | 266° |
| 2026-04-23 19:50 | 40.81352 | 28.20042 | 22012 ft | 428 kts | 266° |
| 2026-04-23 19:50 | 40.81030 | 28.16145 | 22508 ft | 433 kts | 266° |
| 2026-04-23 19:50 | 40.80700 | 28.12178 | 23006 ft | 437 kts | 266° |
| 2026-04-23 19:50 | 40.80365 | 28.08173 | 23518 ft | 440 kts | 266° |
| 2026-04-23 19:51 | 40.80027 | 28.04136 | 24032 ft | 444 kts | 266° |
| 2026-04-23 19:51 | 40.79690 | 28.00115 | 24523 ft | 447 kts | 266° |
| 2026-04-23 19:51 | 40.79344 | 27.96002 | 25047 ft | 449 kts | 266° |
| 2026-04-23 19:51 | 40.79000 | 27.91919 | 25504 ft | 452 kts | 266° |
| 2026-04-23 19:52 | 40.78648 | 27.87762 | 25920 ft | 457 kts | 266° |
| 2026-04-23 19:52 | 40.78294 | 27.83630 | 26337 ft | 460 kts | 266° |
| 2026-04-23 19:52 | 40.77931 | 27.79403 | 26791 ft | 462 kts | 266° |
| 2026-04-23 19:52 | 40.77395 | 27.75233 | 27118 ft | 470 kts | 255° |
| 2026-04-23 19:53 | 40.75956 | 27.71386 | 27421 ft | 477 kts | 236° |
| 2026-04-23 19:53 | 40.73619 | 27.68263 | 27834 ft | 479 kts | 216° |
| 2026-04-23 19:53 | 40.70728 | 27.66136 | 28020 ft | 480 kts | 205° |
| 2026-04-23 19:54 | 40.64643 | 27.62539 | 28011 ft | 477 kts | 204° |
| 2026-04-23 19:54 | 40.58608 | 27.58864 | 27999 ft | 477 kts | 205° |
| 2026-04-23 19:55 | 40.52443 | 27.55702 | 28007 ft | 475 kts | 200° |
| 2026-04-23 19:55 | 40.46229 | 27.52829 | 28005 ft | 473 kts | 200° |
| 2026-04-23 19:56 | 40.40030 | 27.49973 | 28016 ft | 471 kts | 200° |
| 2026-04-23 19:56 | 40.33866 | 27.47135 | 28009 ft | 469 kts | 201° |
| 2026-04-23 19:57 | 40.27741 | 27.44319 | 28010 ft | 464 kts | 201° |
| 2026-04-23 19:57 | 40.21645 | 27.41520 | 28011 ft | 463 kts | 201° |
| 2026-04-23 19:58 | 40.15541 | 27.38725 | 28008 ft | 463 kts | 200° |
| 2026-04-23 19:58 | 40.09480 | 27.35956 | 28008 ft | 463 kts | 200° |
| 2026-04-23 19:59 | 40.03410 | 27.33188 | 28012 ft | 460 kts | 200° |
| 2026-04-23 19:59 | 40.00372 | 27.31842 | 27997 ft | 458 kts | 198° |
| 2026-04-23 19:59 | 39.97287 | 27.30776 | 27553 ft | 453 kts | 193° |
| 2026-04-23 19:59 | 39.94220 | 27.30058 | 26340 ft | 454 kts | 188° |
| 2026-04-23 20:00 | 39.91087 | 27.29476 | 24822 ft | 456 kts | 187° |
| 2026-04-23 20:00 | 39.87986 | 27.28927 | 23361 ft | 454 kts | 186° |
| 2026-04-23 20:00 | 39.84890 | 27.28384 | 22083 ft | 448 kts | 187° |
| 2026-04-23 20:00 | 39.81887 | 27.27500 | 20848 ft | 438 kts | 202° |
| 2026-04-23 20:01 | 39.79388 | 27.25419 | 19704 ft | 422 kts | 225° |
| 2026-04-23 20:01 | 39.77734 | 27.22404 | 18661 ft | 403 kts | 244° |
| 2026-04-23 20:01 | 39.76579 | 27.19173 | 17591 ft | 392 kts | 246° |
| 2026-04-23 20:01 | 39.75388 | 27.16059 | 16349 ft | 388 kts | 243° |
| 2026-04-23 20:02 | 39.74086 | 27.13043 | 15089 ft | 384 kts | 240° |
| 2026-04-23 20:02 | 39.72726 | 27.10119 | 13827 ft | 382 kts | 238° |
| 2026-04-23 20:02 | 39.71222 | 27.07306 | 12800 ft | 372 kts | 235° |
| 2026-04-23 20:02 | 39.69727 | 27.04659 | 12108 ft | 356 kts | 235° |
| 2026-04-23 20:03 | 39.68291 | 27.02129 | 11471 ft | 341 kts | 235° |
| 2026-04-23 20:03 | 39.66908 | 26.99694 | 10870 ft | 328 kts | 235° |
| 2026-04-23 20:03 | 39.65577 | 26.97348 | 10304 ft | 316 kts | 235° |
| 2026-04-23 20:03 | 39.64309 | 26.95112 | 9909 ft | 301 kts | 235° |
| 2026-04-23 20:04 | 39.63104 | 26.92990 | 9482 ft | 291 kts | 234° |
| 2026-04-23 20:04 | 39.61678 | 26.91156 | 8857 ft | 290 kts | 211° |
| 2026-04-23 20:04 | 39.59833 | 26.90119 | 8198 ft | 290 kts | 199° |
| 2026-04-23 20:04 | 39.57939 | 26.89323 | 7602 ft | 287 kts | 198° |
| 2026-04-23 20:05 | 39.56069 | 26.88510 | 7160 ft | 279 kts | 199° |
| 2026-04-23 20:05 | 39.54246 | 26.87651 | 6671 ft | 274 kts | 200° |
| 2026-04-23 20:05 | 39.52504 | 26.86776 | 6215 ft | 268 kts | 201° |
| 2026-04-23 20:05 | 39.50791 | 26.85890 | 5810 ft | 262 kts | 201° |
| 2026-04-23 20:06 | 39.49218 | 26.85065 | 5379 ft | 259 kts | 202° |
| 2026-04-23 20:06 | 39.47564 | 26.84193 | 5020 ft | 254 kts | 201° |
| 2026-04-23 20:06 | 39.45933 | 26.83372 | 4738 ft | 249 kts | 194° |
| 2026-04-23 20:06 | 39.44265 | 26.83353 | 4434 ft | 239 kts | 156° |
| 2026-04-23 20:07 | 39.43063 | 26.84579 | 4174 ft | 207 kts | 117° |
| 2026-04-23 20:07 | 39.42853 | 26.86264 | 3686 ft | 189 kts | 72° |
| 2026-04-23 20:07 | 39.43639 | 26.87492 | 3262 ft | 178 kts | 29° |
| 2026-04-23 20:07 | 39.44777 | 26.87936 | 3029 ft | 166 kts | 10° |
| 2026-04-23 20:08 | 39.45882 | 26.87872 | 2950 ft | 150 kts | 350° |
| 2026-04-23 20:08 | 39.46874 | 26.87579 | 2937 ft | 141 kts | 9° |
| 2026-04-23 20:08 | 39.47717 | 26.88101 | 2921 ft | 134 kts | 41° |
| 2026-04-23 20:08 | 39.48355 | 26.88970 | 2621 ft | 133 kts | 49° |
| 2026-04-23 20:09 | 39.48942 | 26.89903 | 2183 ft | 134 kts | 51° |
| 2026-04-23 20:09 | 39.49512 | 26.90873 | 1989 ft | 136 kts | 53° |
| 2026-04-23 20:09 | 39.50076 | 26.91865 | 1990 ft | 136 kts | 53° |
| 2026-04-23 20:09 | 39.50622 | 26.92835 | 1890 ft | 132 kts | 53° |
| 2026-04-23 20:10 | 39.50979 | 26.93469 | 1637 ft | 132 kts | 53° |
| 2026-04-23 20:10 | 39.51700 | 26.94748 | 1091 ft | 132 kts | 54° |
| 2026-04-23 20:10 | 39.52245 | 26.95717 | 922 ft | 133 kts | 55° |
| 2026-04-23 20:10 | 39.52779 | 26.96691 | 830 ft | 134 kts | 54° |
| 2026-04-23 20:11 | 39.53331 | 26.97665 | 648 ft | 134 kts | 53° |
| 2026-04-23 20:11 | 39.53899 | 26.98632 | 329 ft | 132 kts | 54° |
| 2026-04-23 20:11 | 39.54435 | 26.99585 | 77 ft | 130 kts | 55° |
| 2026-04-23 20:11 | 39.54945 | 27.00508 | 31 ft | 115 kts | 53° |
| 2026-04-23 20:12 | 39.55284 | 27.01107 | 34 ft | 33 kts | 54° |
| 2026-04-23 20:12 | 39.55422 | 27.01343 | 34 ft | 31 kts | 51° |
| 2026-04-23 20:12 | 39.55552 | 27.01563 | 34 ft | 29 kts | 54° |
| 2026-04-23 20:12 | 39.55665 | 27.01761 | 35 ft | 26 kts | 54° |
| 2026-04-23 20:13 | 39.55766 | 27.01943 | 37 ft | 23 kts | 53° |
| 2026-04-23 20:13 | 39.55855 | 27.02103 | 40 ft | 16 kts | 68° |
| 2026-04-23 20:13 | 39.55892 | 27.02164 | 42 ft | 4 kts | 303° |
| 2026-04-23 20:13 | 39.55875 | 27.02115 | 41 ft | 8 kts | 233° |
| 2026-04-23 20:14 | 39.55797 | 27.01984 | 38 ft | 23 kts | 232° |
| 2026-04-23 20:14 | 39.55693 | 27.01810 | 35 ft | 24 kts | 234° |
| 2026-04-23 20:14 | 39.55596 | 27.01637 | 35 ft | 23 kts | 233° |
| 2026-04-23 20:14 | 39.55496 | 27.01462 | 33 ft | 24 kts | 234° |
| 2026-04-23 20:15 | 39.55399 | 27.01293 | 35 ft | 22 kts | 233° |
| 2026-04-23 20:15 | 39.55305 | 27.01130 | 34 ft | 22 kts | 234° |
| 2026-04-23 20:15 | 39.55200 | 27.00986 | 33 ft | 22 kts | 206° |
| 2026-04-23 20:15 | 39.55064 | 27.01036 | 34 ft | 20 kts | 144° |
| 2026-04-23 20:16 | 39.54987 | 27.01131 | 36 ft | 5 kts | 129° |
| 2026-04-23 20:16 | 39.54958 | 27.01165 | 37 ft | 5 kts | 138° |
| 2026-04-23 20:16 | 39.54951 | 27.01172 | 37 ft | 0 kts | 141° |
| 2026-04-23 20:16 | 39.54950 | 27.01173 | 37 ft | 0 kts | 143° |